createdAt,value
2017-09-30T00:01:00.345Z,57.20
2017-09-30T00:03:28.164Z,53.60
2017-09-30T00:05:56.691Z,52.08
2017-09-30T00:08:24.463Z,51.97
2017-09-30T00:10:52.340Z,54.78
2017-09-30T00:13:20.099Z,55.22
2017-09-30T00:15:47.856Z,56.33
2017-09-30T00:18:15.664Z,53.38
2017-09-30T00:20:43.427Z,54.15
2017-09-30T00:23:11.187Z,50.25
2017-09-30T00:25:39.019Z,54.55
2017-09-30T00:28:06.772Z,55.60
2017-09-30T00:30:34.532Z,56.70
2017-09-30T00:33:02.347Z,57.42
2017-09-30T00:35:30.103Z,59.83
2017-09-30T00:37:57.863Z,65.60
2017-09-30T00:40:25.685Z,64.62
2017-09-30T00:42:53.449Z,63.55
2017-09-30T00:45:21.213Z,63.55
2017-09-30T00:47:49.034Z,65.65
2017-09-30T00:50:16.792Z,58.92
2017-09-30T00:52:44.588Z,62.05
2017-09-30T00:55:12.432Z,63.03
2017-09-30T00:57:40.195Z,67.72
2017-09-30T01:00:07.963Z,70.65
2017-09-30T01:02:35.790Z,62.83
2017-09-30T01:05:03.552Z,61.85
2017-09-30T01:07:31.302Z,69.45
2017-09-30T01:09:59.116Z,63.10
2017-09-30T01:12:26.894Z,70.10
2017-09-30T01:14:54.653Z,67.10
2017-09-30T01:17:22.464Z,71.28
2017-09-30T01:19:50.236Z,74.60
2017-09-30T01:22:18.007Z,71.10
2017-09-30T01:24:45.826Z,68.93
2017-09-30T01:27:14.364Z,76.50
2017-09-30T01:29:42.151Z,67.93
2017-09-30T01:32:09.987Z,76.68
2017-09-30T01:34:37.755Z,65.65
2017-09-30T01:37:05.559Z,77.35
2017-09-30T01:39:34.188Z,73.22
2017-09-30T01:42:01.943Z,73.78
2017-09-30T01:44:29.701Z,70.43
2017-09-30T01:46:57.526Z,77.68
2017-09-30T01:49:26.042Z,72.32
2017-09-30T01:51:53.811Z,75.53
2017-09-30T01:54:21.635Z,73.40
2017-09-30T01:56:50.169Z,74.57
2017-09-30T01:59:17.923Z,71.75
2017-09-30T02:01:45.749Z,73.70
2017-09-30T02:04:13.519Z,81.82
2017-09-30T02:06:41.292Z,87.40
2017-09-30T02:09:09.118Z,78.15
2017-09-30T02:11:37.656Z,82.30
2017-09-30T02:14:06.204Z,79.97
2017-09-30T02:16:34.027Z,72.80
2017-09-30T02:19:01.792Z,85.97
2017-09-30T02:21:29.553Z,82.05
2017-09-30T02:23:57.374Z,87.72
2017-09-30T02:26:25.144Z,83.35
2017-09-30T02:28:52.908Z,86.93
2017-09-30T02:31:20.732Z,84.68
2017-09-30T02:33:48.497Z,82.72
2017-09-30T02:36:16.269Z,78.43
2017-09-30T02:38:44.190Z,80.43
2017-09-30T02:41:11.956Z,89.80
2017-09-30T02:43:40.485Z,84.25
2017-09-30T02:46:08.315Z,78.93
2017-09-30T02:48:36.836Z,90.10
2017-09-30T02:51:04.606Z,91.90
2017-09-30T02:53:32.427Z,84.10
2017-09-30T02:56:00.207Z,84.47
2017-09-30T02:58:27.988Z,72.47
2017-09-30T03:00:55.797Z,74.57
2017-09-30T03:03:24.328Z,72.57
2017-09-30T03:05:52.092Z,80.87
2017-09-30T03:08:19.969Z,81.65
2017-09-30T03:10:47.745Z,72.60
2017-09-30T03:13:15.517Z,74.68
2017-09-30T03:15:44.112Z,78.25
2017-09-30T03:18:11.887Z,72.45
2017-09-30T03:20:39.657Z,70.10
2017-09-30T03:23:07.488Z,76.97
2017-09-30T03:25:36.021Z,70.78
2017-09-30T03:28:03.783Z,76.07
2017-09-30T03:30:31.620Z,76.22
2017-09-30T03:32:59.395Z,78.43
2017-09-30T03:35:27.169Z,75.18
2017-09-30T03:37:55.000Z,76.00
2017-09-30T03:40:22.764Z,76.93
2017-09-30T03:42:50.529Z,69.60
2017-09-30T03:45:18.360Z,74.87
2017-09-30T03:47:46.899Z,70.75
2017-09-30T03:50:14.665Z,61.70
2017-09-30T03:52:42.491Z,76.05
2017-09-30T03:55:10.252Z,84.28
2017-09-30T03:57:38.027Z,76.05
2017-09-30T04:00:05.873Z,82.15
2017-09-30T04:02:33.641Z,91.30
2017-09-30T04:05:01.417Z,84.22
2017-09-30T04:07:29.249Z,83.25
2017-09-30T04:09:57.791Z,79.82
2017-09-30T04:12:25.592Z,80.87
2017-09-30T04:14:54.201Z,85.28
2017-09-30T04:17:21.985Z,88.60
2017-09-30T04:19:49.761Z,81.30
2017-09-30T04:22:17.587Z,80.30
2017-09-30T04:24:45.356Z,77.60
2017-09-30T04:27:13.139Z,74.35
2017-09-30T04:29:40.966Z,77.53
2017-09-30T04:32:08.735Z,80.90
2017-09-30T04:34:36.504Z,80.90
2017-09-30T04:37:04.358Z,87.90
2017-09-30T04:39:32.129Z,80.50
2017-09-30T04:41:59.899Z,92.85
2017-09-30T04:44:27.724Z,77.55
2017-09-30T04:46:56.258Z,75.25
2017-09-30T04:49:24.032Z,69.47
2017-09-30T04:51:51.873Z,71.03
2017-09-30T04:54:19.661Z,72.30
2017-09-30T04:56:47.449Z,70.28
2017-09-30T04:59:16.048Z,75.32
2017-09-30T05:01:43.842Z,88.80
2017-09-30T05:04:11.627Z,91.22
2017-09-30T05:06:39.467Z,77.90
2017-09-30T05:09:07.245Z,77.68
2017-09-30T05:11:35.011Z,68.37
2017-09-30T05:14:02.833Z,74.60
2017-09-30T05:16:30.643Z,76.07
2017-09-30T05:18:58.415Z,73.05
2017-09-30T05:21:27.021Z,64.37
2017-09-30T05:23:54.800Z,73.87
2017-09-30T05:26:22.599Z,72.62
2017-09-30T05:28:50.428Z,67.97
2017-09-30T05:31:18.195Z,72.22
2017-09-30T05:33:45.957Z,69.03
2017-09-30T05:36:13.837Z,67.03
2017-09-30T05:38:41.604Z,59.78
2017-09-30T05:41:09.383Z,63.80
2017-09-30T05:43:37.262Z,65.22
2017-09-30T05:46:05.042Z,63.50
2017-09-30T05:48:33.569Z,62.80
2017-09-30T05:51:01.393Z,55.65
2017-09-30T05:53:29.172Z,56.10
2017-09-30T05:55:56.944Z,55.67
2017-09-30T05:58:24.772Z,53.58
2017-09-30T06:00:53.340Z,54.58
2017-09-30T06:03:21.922Z,53.45
2017-09-30T06:05:50.511Z,49.45
2017-09-30T06:08:18.271Z,48.03
2017-09-30T06:10:46.799Z,40.65
2017-09-30T06:13:14.654Z,38.13
2017-09-30T06:15:42.430Z,36.00
2017-09-30T06:18:10.191Z,35.17
2017-09-30T06:20:38.027Z,34.90
2017-09-30T06:23:05.800Z,31.58
2017-09-30T06:25:33.559Z,31.52
2017-09-30T06:28:01.375Z,30.48
2017-09-30T06:30:29.143Z,31.00
2017-09-30T06:32:58.827Z,30.12
2017-09-30T06:35:27.430Z,31.02
2017-09-30T06:37:55.952Z,28.40
2017-09-30T06:40:23.715Z,28.45
2017-09-30T06:42:51.553Z,31.25
2017-09-30T06:45:19.316Z,27.65
2017-09-30T06:47:47.089Z,29.17
2017-09-30T06:50:14.915Z,28.20
2017-09-30T06:52:50.740Z,25.73
2017-09-30T06:55:18.564Z,25.88
2017-09-30T06:57:46.315Z,27.30
2017-09-30T07:00:14.078Z,26.55
2017-09-30T07:02:41.893Z,26.60
2017-09-30T07:05:09.659Z,26.15
2017-09-30T07:07:37.418Z,25.25
2017-09-30T07:10:05.237Z,23.50
2017-09-30T07:12:32.991Z,23.87
2017-09-30T07:15:00.755Z,23.05
2017-09-30T07:17:28.571Z,24.40
2017-09-30T07:19:56.327Z,25.40
2017-09-30T07:22:24.087Z,25.77
2017-09-30T07:24:51.906Z,25.02
2017-09-30T07:27:19.668Z,26.25
2017-09-30T07:29:47.420Z,23.58
2017-09-30T07:32:15.236Z,24.37
2017-09-30T07:34:43.007Z,24.40
2017-09-30T07:37:10.784Z,24.10
2017-09-30T07:39:38.596Z,21.87
2017-09-30T07:42:06.400Z,24.15
2017-09-30T07:44:34.168Z,22.92
2017-09-30T07:47:01.998Z,21.30
2017-09-30T07:49:29.768Z,20.88
2017-09-30T07:51:57.541Z,25.27
2017-09-30T07:54:25.367Z,22.37
2017-09-30T07:56:53.142Z,22.62
2017-09-30T07:59:20.899Z,24.00
2017-09-30T08:01:48.714Z,23.60
2017-09-30T08:04:17.235Z,24.27
2017-09-30T08:06:44.999Z,19.98
2017-09-30T08:09:12.817Z,21.42
2017-09-30T08:11:41.383Z,22.50
2017-09-30T08:14:09.744Z,22.27
2017-09-30T08:16:37.559Z,22.80
2017-09-30T08:19:05.394Z,21.45
2017-09-30T08:21:33.196Z,22.33
2017-09-30T08:24:01.015Z,19.80
2017-09-30T08:26:28.940Z,19.17
2017-09-30T08:28:57.099Z,19.37
2017-09-30T08:31:24.924Z,19.92
2017-09-30T08:33:53.476Z,20.73
2017-09-30T08:36:21.310Z,19.73
2017-09-30T08:38:49.123Z,18.27
2017-09-30T08:41:16.883Z,19.40
2017-09-30T08:43:45.464Z,19.80
2017-09-30T08:48:50.151Z,29.35
2017-09-30T08:51:18.819Z,18.62
2017-09-30T08:53:46.597Z,18.30
2017-09-30T08:56:14.374Z,17.85
2017-09-30T08:58:43.006Z,20.50
2017-09-30T09:01:11.531Z,19.65
2017-09-30T09:03:39.293Z,17.70
2017-09-30T09:06:07.105Z,18.25
2017-09-30T09:08:35.632Z,18.23
2017-09-30T09:11:03.390Z,17.15
2017-09-30T09:13:31.216Z,18.23
2017-09-30T09:15:59.747Z,17.02
2017-09-30T09:18:27.504Z,16.15
2017-09-30T09:20:55.314Z,16.12
2017-09-30T09:23:23.850Z,15.10
2017-09-30T09:25:51.625Z,16.15
2017-09-30T09:28:19.443Z,16.45
2017-09-30T09:30:47.199Z,14.90
2017-09-30T09:33:15.010Z,13.35
2017-09-30T09:35:42.839Z,13.75
2017-09-30T09:38:10.604Z,14.93
2017-09-30T09:40:38.391Z,16.02
2017-09-30T09:43:06.215Z,14.73
2017-09-30T09:45:33.970Z,15.85
2017-09-30T09:48:01.727Z,13.77
2017-09-30T09:50:31.400Z,13.98
2017-09-30T09:52:59.159Z,13.02
2017-09-30T09:55:26.924Z,13.10
2017-09-30T09:57:54.732Z,14.63
2017-09-30T10:00:22.495Z,13.62
2017-09-30T10:02:50.257Z,12.65
2017-09-30T10:05:18.072Z,13.93
2017-09-30T10:07:45.831Z,13.98
2017-09-30T10:10:13.608Z,13.73
2017-09-30T10:12:41.423Z,14.52
2017-09-30T10:15:09.207Z,16.58
2017-09-30T10:17:36.964Z,13.65
2017-09-30T10:20:04.781Z,14.82
2017-09-30T10:22:32.542Z,16.62
2017-09-30T10:25:00.303Z,15.85
2017-09-30T10:27:28.127Z,13.45
2017-09-30T10:29:55.899Z,15.20
2017-09-30T10:32:23.660Z,13.60
2017-09-30T10:34:52.039Z,12.32
2017-09-30T10:37:19.804Z,12.07
2017-09-30T10:39:47.559Z,13.93
2017-09-30T10:42:15.375Z,12.20
2017-09-30T10:44:43.128Z,13.68
2017-09-30T10:47:10.884Z,12.40
2017-09-30T10:49:38.699Z,13.55
2017-09-30T10:52:06.461Z,11.93
2017-09-30T10:54:34.225Z,11.85
2017-09-30T10:57:02.039Z,12.77
2017-09-30T10:59:29.792Z,11.10
2017-09-30T11:01:57.555Z,10.77
2017-09-30T11:04:25.376Z,11.43
2017-09-30T11:06:53.144Z,11.10
2017-09-30T11:09:20.912Z,11.65
2017-09-30T11:11:49.570Z,10.57
2017-09-30T11:14:17.329Z,10.25
2017-09-30T11:16:45.088Z,11.15
2017-09-30T11:19:12.899Z,9.40
2017-09-30T11:21:40.662Z,8.35
2017-09-30T11:24:08.427Z,10.07
2017-09-30T11:26:36.244Z,10.27
2017-09-30T11:29:04.008Z,12.35
2017-09-30T11:31:31.758Z,9.43
2017-09-30T11:33:59.572Z,8.57
2017-09-30T11:36:27.319Z,8.18
2017-09-30T11:38:55.838Z,7.62
2017-09-30T11:41:23.657Z,8.18
2017-09-30T11:43:52.176Z,9.27
2017-09-30T11:46:19.944Z,8.82
2017-09-30T11:48:47.760Z,8.68
2017-09-30T11:51:16.309Z,8.23
2017-09-30T11:53:44.065Z,8.98
2017-09-30T11:56:11.876Z,7.65
2017-09-30T11:58:40.401Z,7.85
2017-09-30T12:01:08.159Z,8.10
2017-09-30T12:03:35.984Z,7.82
2017-09-30T12:06:04.504Z,9.57
2017-09-30T12:08:32.264Z,8.65
2017-09-30T12:11:00.079Z,8.60
2017-09-30T12:13:28.599Z,9.30
2017-09-30T12:15:56.353Z,8.88
2017-09-30T12:18:24.164Z,8.48
2017-09-30T12:20:51.962Z,7.80
2017-09-30T12:23:19.715Z,7.87
2017-09-30T12:25:48.287Z,8.57
2017-09-30T12:28:16.821Z,8.43
2017-09-30T12:30:44.572Z,8.45
2017-09-30T12:33:14.610Z,7.25
2017-09-30T12:35:42.405Z,7.80
2017-09-30T12:38:11.092Z,7.90
2017-09-30T12:40:39.783Z,7.40
2017-09-30T12:43:07.547Z,7.15
2017-09-30T12:45:35.467Z,7.78
2017-09-30T12:48:03.320Z,6.53
2017-09-30T12:50:31.192Z,5.90
2017-09-30T12:52:59.466Z,6.18
2017-09-30T12:55:30.421Z,5.40
2017-09-30T12:58:03.123Z,5.62
2017-09-30T13:00:30.950Z,6.10
2017-09-30T13:02:58.715Z,5.70
2017-09-30T13:05:26.530Z,5.85
2017-09-30T13:07:54.362Z,6.37
2017-09-30T13:10:22.881Z,6.47
2017-09-30T13:12:50.635Z,5.10
2017-09-30T13:15:18.456Z,6.43
2017-09-30T13:17:46.216Z,5.62
2017-09-30T13:20:13.994Z,6.37
2017-09-30T13:22:42.588Z,6.30
2017-09-30T13:25:10.345Z,6.28
2017-09-30T13:27:38.110Z,5.93
2017-09-30T13:30:05.939Z,6.15
2017-09-30T13:32:33.699Z,6.00
2017-09-30T13:35:01.449Z,5.65
2017-09-30T13:37:29.264Z,5.35
2017-09-30T13:39:57.021Z,8.02
2017-09-30T13:42:24.793Z,7.45
2017-09-30T13:44:52.610Z,6.00
2017-09-30T13:47:20.372Z,6.65
2017-09-30T13:49:48.127Z,6.43
2017-09-30T13:52:15.941Z,7.45
2017-09-30T13:54:43.714Z,8.35
2017-09-30T13:57:11.468Z,5.68
2017-09-30T13:59:39.271Z,7.40
2017-09-30T14:02:07.034Z,6.75
2017-09-30T14:04:34.801Z,9.48
2017-09-30T14:07:02.621Z,5.70
2017-09-30T14:09:30.374Z,6.65
2017-09-30T14:11:58.130Z,5.57
2017-09-30T14:14:25.958Z,6.60
2017-09-30T14:16:54.505Z,5.85
2017-09-30T14:19:22.267Z,6.80
2017-09-30T14:21:50.074Z,5.60
2017-09-30T14:24:18.603Z,5.07
2017-09-30T14:26:46.371Z,5.18
2017-09-30T14:29:14.183Z,6.07
2017-09-30T14:31:42.851Z,6.50
2017-09-30T14:34:10.611Z,5.47
2017-09-30T14:36:38.420Z,6.50
2017-09-30T14:39:06.177Z,6.87
2017-09-30T14:41:33.928Z,7.18
2017-09-30T14:44:01.731Z,6.65
2017-09-30T14:46:29.488Z,6.30
2017-09-30T14:48:58.009Z,8.63
2017-09-30T14:51:26.946Z,7.62
2017-09-30T14:53:55.012Z,8.30
2017-09-30T14:56:22.769Z,7.47
2017-09-30T14:58:50.582Z,6.80
2017-09-30T15:01:18.352Z,7.10
2017-09-30T15:03:46.862Z,6.65
2017-09-30T15:06:14.700Z,6.03
2017-09-30T15:08:42.481Z,6.55
2017-09-30T15:11:10.244Z,6.45
2017-09-30T15:13:38.060Z,6.50
2017-09-30T15:16:05.807Z,5.95
2017-09-30T15:18:33.563Z,5.65
2017-09-30T15:21:01.363Z,6.68
2017-09-30T15:23:29.899Z,6.90
2017-09-30T15:25:57.656Z,6.20
2017-09-30T15:28:25.459Z,6.87
2017-09-30T15:30:53.495Z,7.20
2017-09-30T15:33:21.251Z,6.20
2017-09-30T15:35:49.248Z,5.47
2017-09-30T15:38:17.006Z,7.80
2017-09-30T15:40:44.771Z,7.05
2017-09-30T15:43:12.591Z,7.45
2017-09-30T15:45:40.364Z,7.87
2017-09-30T15:48:08.125Z,8.23
2017-09-30T15:50:35.938Z,9.63
2017-09-30T15:53:04.468Z,8.30
2017-09-30T15:55:32.231Z,7.60
2017-09-30T15:58:00.040Z,7.68
2017-09-30T16:00:27.815Z,7.70
2017-09-30T16:02:56.365Z,9.23
2017-09-30T16:05:24.183Z,8.65
2017-09-30T16:07:51.933Z,8.57
2017-09-30T16:10:19.688Z,7.85
2017-09-30T16:12:47.507Z,7.75
2017-09-30T16:15:15.259Z,7.35
2017-09-30T16:17:43.788Z,9.13
2017-09-30T16:20:12.368Z,8.60
2017-09-30T16:22:40.139Z,9.85
2017-09-30T16:25:07.917Z,8.63
2017-09-30T16:27:35.742Z,10.77
2017-09-30T16:30:04.293Z,10.43
2017-09-30T16:32:32.048Z,9.35
2017-09-30T16:34:59.864Z,10.55
2017-09-30T16:37:27.628Z,10.20
2017-09-30T16:39:55.413Z,10.98
2017-09-30T16:42:23.227Z,10.38
2017-09-30T16:44:51.024Z,10.70
2017-09-30T16:47:18.840Z,10.10
2017-09-30T16:49:47.542Z,9.52
2017-09-30T16:52:16.068Z,11.30
2017-09-30T16:54:43.831Z,10.05
2017-09-30T16:57:11.648Z,11.57
2017-09-30T16:59:40.177Z,10.77
2017-09-30T17:02:07.935Z,12.68
2017-09-30T17:04:35.743Z,13.15
2017-09-30T17:07:03.502Z,13.65
2017-09-30T17:09:31.268Z,13.68
2017-09-30T17:11:59.086Z,13.40
2017-09-30T17:14:26.845Z,14.25
2017-09-30T17:16:54.613Z,13.45
2017-09-30T17:19:22.432Z,13.68
2017-09-30T17:21:50.963Z,14.00
2017-09-30T17:24:19.488Z,14.85
2017-09-30T17:26:48.070Z,13.62
2017-09-30T17:29:16.601Z,14.65
2017-09-30T17:31:44.359Z,15.55
2017-09-30T17:34:12.169Z,15.90
2017-09-30T17:36:40.710Z,15.43
2017-09-30T17:39:08.462Z,16.55
2017-09-30T17:41:36.282Z,16.45
2017-09-30T17:44:04.818Z,15.07
2017-09-30T17:46:32.584Z,17.77
2017-09-30T17:49:00.427Z,18.02
2017-09-30T17:51:28.196Z,17.92
2017-09-30T17:53:55.971Z,17.37
2017-09-30T17:56:23.792Z,19.33
2017-09-30T17:58:51.551Z,18.65
2017-09-30T18:01:19.307Z,19.30
2017-09-30T18:03:47.128Z,20.15
2017-09-30T18:06:14.896Z,17.90
2017-09-30T18:08:42.663Z,18.95
2017-09-30T18:11:10.503Z,19.90
2017-09-30T18:13:38.436Z,18.27
2017-09-30T18:16:06.200Z,20.40
2017-09-30T18:18:34.025Z,18.90
2017-09-30T18:21:03.072Z,19.33
2017-09-30T18:23:30.831Z,21.10
2017-09-30T18:26:00.319Z,19.95
2017-09-30T18:28:28.072Z,21.62
2017-09-30T18:30:55.830Z,22.25
2017-09-30T18:33:23.667Z,21.77
2017-09-30T18:35:52.189Z,22.00
2017-09-30T18:38:19.948Z,21.95
2017-09-30T18:40:47.762Z,22.52
2017-09-30T18:43:16.293Z,21.98
2017-09-30T18:45:44.097Z,22.45
2017-09-30T18:48:11.920Z,23.23
2017-09-30T18:50:39.687Z,21.50
2017-09-30T18:53:07.448Z,23.73
2017-09-30T18:55:35.407Z,22.05
2017-09-30T18:58:04.257Z,23.60
2017-09-30T19:00:33.705Z,24.12
2017-09-30T19:03:01.674Z,26.12
2017-09-30T19:05:29.551Z,25.52
2017-09-30T19:07:57.332Z,24.52
2017-09-30T19:10:25.180Z,23.48
2017-09-30T19:12:52.946Z,25.23
2017-09-30T19:15:20.713Z,24.83
2017-09-30T19:17:48.535Z,24.85
2017-09-30T19:20:16.291Z,24.20
2017-09-30T19:22:44.052Z,25.35
2017-09-30T19:25:11.881Z,25.12
2017-09-30T19:27:40.412Z,23.60
2017-09-30T19:30:08.171Z,25.02
2017-09-30T19:32:35.988Z,25.58
2017-09-30T19:35:04.517Z,26.00
2017-09-30T19:37:32.285Z,26.27
2017-09-30T19:40:00.100Z,26.67
2017-09-30T19:42:28.625Z,27.15
2017-09-30T19:44:56.388Z,25.12
2017-09-30T19:47:24.211Z,26.80
2017-09-30T19:49:51.966Z,30.33
2017-09-30T19:52:20.494Z,27.05
2017-09-30T19:54:48.319Z,27.92
2017-09-30T19:57:16.080Z,28.00
2017-09-30T19:59:43.850Z,25.02
2017-09-30T20:02:11.676Z,26.92
2017-09-30T20:04:39.437Z,27.35
2017-09-30T20:07:07.203Z,28.38
2017-09-30T20:09:35.814Z,28.27
2017-09-30T20:12:03.575Z,27.67
2017-09-30T20:14:31.337Z,27.13
2017-09-30T20:16:59.157Z,29.17
2017-09-30T20:19:26.918Z,26.85
2017-09-30T20:21:54.679Z,27.95
2017-09-30T20:24:22.497Z,25.05
2017-09-30T20:26:50.269Z,26.08
2017-09-30T20:29:18.033Z,26.58
2017-09-30T20:31:45.863Z,25.80
2017-09-30T20:34:13.619Z,25.10
2017-09-30T20:36:42.151Z,24.35
2017-09-30T20:39:09.969Z,25.33
2017-09-30T20:41:37.735Z,25.12
2017-09-30T20:44:05.504Z,27.10
2017-09-30T20:46:33.326Z,26.58
2017-09-30T20:49:01.094Z,26.08
2017-09-30T20:51:28.863Z,24.10
2017-09-30T20:53:57.452Z,26.25
2017-09-30T20:56:25.228Z,28.33
2017-09-30T20:58:52.985Z,27.80
2017-09-30T21:01:20.806Z,31.15
2017-09-30T21:03:48.556Z,28.75
2017-09-30T21:06:16.312Z,31.00
2017-09-30T21:08:44.128Z,31.35
2017-09-30T21:11:11.890Z,29.85
2017-09-30T21:13:39.663Z,31.85
2017-09-30T21:16:07.483Z,30.58
2017-09-30T21:18:35.256Z,29.27
2017-09-30T21:21:03.794Z,29.40
2017-09-30T21:23:31.603Z,28.38
2017-09-30T21:26:00.132Z,31.25
2017-09-30T21:28:27.892Z,30.00
2017-09-30T21:30:55.722Z,29.50
2017-09-30T21:33:23.488Z,27.50
2017-09-30T21:35:51.247Z,30.08
2017-09-30T21:38:19.071Z,30.48
2017-09-30T21:40:46.831Z,31.25
2017-09-30T21:43:14.577Z,30.25
2017-09-30T21:45:42.387Z,31.98
2017-09-30T21:48:10.922Z,31.37
2017-09-30T21:50:38.670Z,27.90
2017-09-30T21:53:06.500Z,30.70
2017-09-30T21:55:34.251Z,31.92
2017-09-30T21:58:02.786Z,32.75
2017-09-30T22:00:30.607Z,31.30
2017-09-30T22:02:58.362Z,31.80
2017-09-30T22:05:26.110Z,32.38
2017-09-30T22:07:54.691Z,35.45
2017-09-30T22:10:23.217Z,35.00
2017-09-30T22:12:50.987Z,37.33
2017-09-30T22:15:18.824Z,31.98
2017-09-30T22:17:46.581Z,35.10
2017-09-30T22:20:14.340Z,34.67
2017-09-30T22:22:42.154Z,36.05
2017-09-30T22:25:09.912Z,34.80
2017-09-30T22:27:37.668Z,37.97
2017-09-30T22:30:05.484Z,35.97
2017-09-30T22:32:33.246Z,35.65
2017-09-30T22:35:01.008Z,33.72
2017-09-30T22:37:28.831Z,35.97
2017-09-30T22:39:56.583Z,34.83
2017-09-30T22:42:24.340Z,37.80
2017-09-30T22:44:52.161Z,39.00
2017-09-30T22:47:19.915Z,34.80
2017-09-30T22:49:47.664Z,35.13
2017-09-30T22:52:16.243Z,36.38
2017-09-30T22:54:44.764Z,35.60
2017-09-30T22:57:12.517Z,36.10
2017-09-30T22:59:40.341Z,37.08
2017-09-30T23:02:08.123Z,37.30
2017-09-30T23:04:35.883Z,39.47
2017-09-30T23:07:03.691Z,36.78
2017-09-30T23:09:31.445Z,37.60
2017-09-30T23:11:59.199Z,36.53
2017-09-30T23:14:27.008Z,35.70
2017-09-30T23:16:54.754Z,35.05
2017-09-30T23:19:22.511Z,34.50
2017-09-30T23:21:50.333Z,34.92
2017-09-30T23:24:18.096Z,35.67
2017-09-30T23:26:45.851Z,36.50
2017-09-30T23:29:13.668Z,33.92
2017-09-30T23:31:41.425Z,32.80
2017-09-30T23:34:09.190Z,34.28
2017-09-30T23:36:36.998Z,36.63
2017-09-30T23:39:04.760Z,36.15
2017-09-30T23:41:32.519Z,35.83
2017-09-30T23:44:00.349Z,37.17
2017-09-30T23:46:28.120Z,34.28
2017-09-30T23:48:56.636Z,35.50
2017-09-30T23:51:24.448Z,36.75
2017-09-30T23:53:52.198Z,36.70
2017-09-30T23:56:19.952Z,38.45
2017-09-30T23:58:47.802Z,37.70
